createdAt,value
2022-08-31T00:00:58.206Z,0.47
2022-08-31T00:03:43.384Z,0.50
2022-08-31T00:06:11.096Z,0.40
2022-08-31T00:08:37.673Z,0.55
2022-08-31T00:11:08.730Z,0.40
2022-08-31T00:13:36.937Z,0.40
2022-08-31T00:16:04.830Z,0.40
2022-08-31T00:18:31.877Z,0.55
2022-08-31T00:21:00.040Z,0.50
2022-08-31T00:23:26.758Z,0.50
2022-08-31T00:25:53.402Z,0.43
2022-08-31T00:28:20.543Z,0.40
2022-08-31T00:30:47.724Z,0.30
2022-08-31T00:33:14.391Z,0.60
2022-08-31T00:35:43.680Z,0.60
2022-08-31T00:38:11.918Z,0.68
2022-08-31T00:40:39.310Z,0.47
2022-08-31T00:43:32.890Z,0.63
2022-08-31T00:45:59.632Z,0.57
2022-08-31T00:48:26.249Z,0.60
2022-08-31T00:50:53.052Z,0.63
2022-08-31T00:53:19.940Z,0.60
2022-08-31T00:55:47.318Z,0.60
2022-08-31T00:58:15.290Z,0.43
2022-08-31T01:00:43.304Z,0.45
2022-08-31T01:03:10.546Z,0.45
2022-08-31T01:05:37.626Z,0.55
2022-08-31T01:08:06.049Z,0.63
2022-08-31T01:10:37.006Z,0.60
2022-08-31T01:13:04.438Z,0.70
2022-08-31T01:15:31.737Z,0.60
2022-08-31T01:18:01.762Z,0.50
2022-08-31T01:20:56.005Z,0.55
2022-08-31T01:23:26.967Z,0.77
2022-08-31T01:25:57.204Z,0.60
2022-08-31T01:28:24.538Z,0.80
2022-08-31T01:31:09.345Z,0.63
2022-08-31T01:33:38.349Z,0.50
2022-08-31T01:36:06.862Z,0.60
2022-08-31T01:38:35.677Z,0.60
2022-08-31T01:41:04.066Z,0.60
2022-08-31T01:43:34.344Z,0.95
2022-08-31T01:46:02.881Z,0.60
2022-08-31T01:48:32.105Z,0.68
2022-08-31T01:50:58.793Z,0.88
2022-08-31T01:53:25.594Z,0.68
2022-08-31T01:55:52.268Z,0.73
2022-08-31T01:58:18.940Z,0.82
2022-08-31T02:00:46.548Z,0.90
2022-08-31T02:03:13.543Z,0.90
2022-08-31T02:05:40.848Z,0.68
2022-08-31T02:08:10.087Z,0.93
2022-08-31T02:10:37.436Z,0.75
2022-08-31T02:13:06.952Z,1.02
2022-08-31T02:15:34.919Z,0.70
2022-08-31T02:18:02.263Z,1.05
2022-08-31T02:20:31.727Z,1.10
2022-08-31T02:22:58.651Z,1.23
2022-08-31T02:25:26.606Z,0.80
2022-08-31T02:27:53.199Z,0.93
2022-08-31T02:30:20.466Z,0.95
2022-08-31T02:32:47.733Z,0.80
2022-08-31T02:35:14.353Z,1.17
2022-08-31T02:37:40.940Z,1.02
2022-08-31T02:40:10.997Z,0.90
2022-08-31T02:42:52.335Z,1.00
2022-08-31T02:45:19.459Z,1.00
2022-08-31T02:47:46.895Z,1.02
2022-08-31T02:50:13.526Z,1.10
2022-08-31T02:52:40.725Z,1.02
2022-08-31T02:55:07.534Z,1.20
2022-08-31T02:57:34.829Z,1.13
2022-08-31T03:00:01.483Z,1.17
2022-08-31T03:02:31.711Z,1.35
2022-08-31T03:05:01.293Z,1.40
2022-08-31T03:07:27.985Z,1.13
2022-08-31T03:09:54.568Z,1.23
2022-08-31T03:12:21.143Z,1.20
2022-08-31T03:14:47.744Z,1.48
2022-08-31T03:17:14.386Z,1.35
2022-08-31T03:19:41.858Z,1.10
2022-08-31T03:22:09.775Z,1.45
2022-08-31T03:24:36.392Z,1.30
2022-08-31T03:27:03.236Z,1.33
2022-08-31T03:29:29.960Z,1.55
2022-08-31T03:31:56.915Z,1.40
2022-08-31T03:34:23.618Z,1.40
2022-08-31T03:36:50.261Z,1.20
2022-08-31T03:39:16.923Z,1.52
2022-08-31T03:41:43.662Z,1.45
2022-08-31T03:44:11.010Z,1.27
2022-08-31T03:46:37.814Z,1.38
2022-08-31T03:49:04.553Z,1.50
2022-08-31T03:51:31.248Z,1.40
2022-08-31T03:53:57.880Z,1.48
2022-08-31T03:56:25.099Z,1.40
2022-08-31T03:58:52.216Z,1.50
2022-08-31T04:01:18.881Z,1.40
2022-08-31T04:03:48.508Z,1.40
2022-08-31T04:06:15.143Z,1.50
2022-08-31T04:08:42.047Z,1.60
2022-08-31T04:11:13.119Z,1.75
2022-08-31T04:13:41.947Z,1.70
2022-08-31T04:16:16.653Z,1.48
2022-08-31T04:18:45.761Z,1.60
2022-08-31T04:21:18.253Z,1.50
2022-08-31T04:23:46.665Z,1.95
2022-08-31T04:26:22.030Z,1.65
2022-08-31T04:28:49.396Z,1.70
2022-08-31T04:31:16.959Z,2.08
2022-08-31T04:33:45.226Z,2.35
2022-08-31T04:36:14.783Z,2.13
2022-08-31T04:38:46.563Z,2.70
2022-08-31T04:41:16.229Z,1.95
2022-08-31T04:43:49.914Z,2.67
2022-08-31T04:46:17.916Z,2.55
2022-08-31T04:48:44.684Z,2.40
2022-08-31T04:51:25.784Z,2.60
2022-08-31T04:53:53.504Z,2.78
2022-08-31T04:56:25.471Z,2.50
2022-08-31T04:59:01.875Z,2.78
2022-08-31T05:01:36.054Z,2.60
2022-08-31T05:04:10.130Z,3.35
2022-08-31T05:06:39.403Z,3.10
2022-08-31T05:09:10.931Z,2.88
2022-08-31T05:11:37.852Z,3.38
2022-08-31T05:14:06.414Z,3.28
2022-08-31T05:16:34.289Z,3.28
2022-08-31T05:19:01.368Z,3.30
2022-08-31T05:21:32.160Z,3.22
2022-08-31T05:24:04.151Z,3.20
2022-08-31T05:26:34.522Z,3.70
2022-08-31T05:29:03.959Z,3.28
2022-08-31T05:31:35.102Z,3.45
2022-08-31T05:34:02.531Z,3.17
2022-08-31T05:36:29.148Z,2.88
2022-08-31T05:39:00.910Z,3.20
2022-08-31T05:41:28.856Z,3.13
2022-08-31T05:43:55.512Z,3.20
2022-08-31T05:46:22.254Z,2.60
2022-08-31T05:48:49.983Z,2.92
2022-08-31T05:51:18.795Z,2.60
2022-08-31T05:53:45.832Z,2.70
2022-08-31T05:56:15.804Z,2.47
2022-08-31T05:58:46.449Z,2.80
2022-08-31T06:01:19.483Z,2.40
2022-08-31T06:03:46.837Z,2.45
2022-08-31T06:06:14.399Z,2.30
2022-08-31T06:08:41.917Z,1.90
2022-08-31T06:11:17.740Z,1.95
2022-08-31T06:13:45.148Z,2.08
2022-08-31T06:16:14.015Z,2.10
2022-08-31T06:18:41.341Z,2.08
2022-08-31T06:21:12.999Z,1.70
2022-08-31T06:23:42.414Z,1.73
2022-08-31T06:26:15.765Z,1.83
2022-08-31T06:28:43.837Z,1.50
2022-08-31T06:31:18.508Z,1.50
2022-08-31T06:33:46.112Z,1.48
2022-08-31T06:36:14.707Z,1.45
2022-08-31T06:38:43.400Z,1.55
2022-08-31T06:41:24.869Z,1.23
2022-08-31T06:43:51.487Z,1.48
2022-08-31T06:46:19.675Z,1.30
2022-08-31T06:48:48.153Z,1.27
2022-08-31T06:51:14.816Z,1.17
2022-08-31T06:53:44.894Z,1.10
2022-08-31T06:56:21.023Z,0.90
2022-08-31T06:58:53.757Z,0.98
2022-08-31T07:01:34.690Z,1.30
2022-08-31T07:04:05.912Z,1.00
2022-08-31T07:06:36.161Z,1.13
2022-08-31T07:09:06.443Z,1.30
2022-08-31T07:11:40.996Z,1.23
2022-08-31T07:14:12.685Z,1.10
2022-08-31T07:16:40.437Z,1.20
2022-08-31T07:19:08.536Z,0.80
2022-08-31T07:21:37.495Z,1.00
2022-08-31T07:24:06.247Z,0.85
2022-08-31T07:26:37.357Z,1.08
2022-08-31T07:29:06.605Z,0.88
2022-08-31T07:31:44.833Z,0.80
2022-08-31T07:34:13.214Z,0.65
2022-08-31T07:36:58.697Z,0.60
2022-08-31T07:39:45.137Z,0.70
2022-08-31T07:42:13.725Z,0.50
2022-08-31T07:44:41.548Z,0.52
2022-08-31T07:47:12.478Z,0.40
2022-08-31T07:49:44.545Z,0.60
2022-08-31T07:52:14.926Z,0.60
2022-08-31T07:54:44.424Z,0.60
2022-08-31T07:57:11.565Z,0.50
2022-08-31T07:59:39.245Z,2.05
2022-08-31T08:02:06.792Z,1.00
2022-08-31T08:04:40.927Z,0.57
2022-08-31T08:07:07.657Z,0.50
2022-08-31T08:09:35.516Z,0.80
2022-08-31T08:12:08.696Z,0.57
2022-08-31T08:14:37.491Z,0.40
2022-08-31T08:17:06.263Z,0.80
2022-08-31T08:19:33.801Z,1.00
2022-08-31T08:22:02.934Z,0.60
2022-08-31T08:24:31.567Z,0.50
2022-08-31T08:26:59.197Z,0.50
2022-08-31T08:29:26.351Z,0.65
2022-08-31T08:31:54.393Z,0.50
2022-08-31T08:34:31.516Z,0.40
2022-08-31T08:36:59.584Z,0.80
2022-08-31T08:39:26.422Z,0.50
2022-08-31T08:41:57.776Z,0.30
2022-08-31T08:44:28.303Z,0.50
2022-08-31T08:47:00.208Z,0.30
2022-08-31T08:49:54.223Z,0.40
2022-08-31T08:52:21.290Z,0.47
2022-08-31T08:54:50.296Z,0.60
2022-08-31T08:57:27.990Z,0.75
2022-08-31T08:59:59.337Z,0.60
2022-08-31T09:02:41.895Z,0.40
2022-08-31T09:05:35.233Z,0.50
2022-08-31T09:08:29.060Z,0.40
2022-08-31T09:11:10.126Z,0.60
2022-08-31T09:13:45.585Z,0.47
2022-08-31T09:16:39.070Z,0.40
2022-08-31T09:19:12.780Z,0.43
2022-08-31T09:21:48.486Z,0.40
2022-08-31T09:24:22.189Z,0.32
2022-08-31T09:27:05.138Z,0.40
2022-08-31T09:29:33.117Z,0.50
2022-08-31T09:32:07.149Z,0.40
2022-08-31T09:34:40.987Z,0.50
2022-08-31T09:37:26.319Z,0.50
2022-08-31T09:39:54.483Z,0.40
2022-08-31T09:42:33.642Z,0.50
2022-08-31T09:45:12.839Z,0.47
2022-08-31T09:47:52.358Z,0.60
2022-08-31T09:50:41.743Z,0.40
2022-08-31T09:53:41.711Z,0.50
2022-08-31T09:56:21.419Z,0.40
2022-08-31T09:58:53.282Z,0.40
2022-08-31T10:01:47.131Z,0.40
2022-08-31T10:04:27.167Z,0.40
2022-08-31T10:07:09.518Z,0.90
2022-08-31T10:09:46.941Z,0.50
2022-08-31T10:12:39.456Z,0.50
2022-08-31T10:15:21.208Z,0.40
2022-08-31T10:18:02.608Z,0.45
2022-08-31T10:20:38.239Z,0.40
2022-08-31T10:23:21.019Z,0.50
2022-08-31T10:25:54.702Z,0.40
2022-08-31T10:28:32.145Z,0.43
2022-08-31T10:31:05.289Z,0.50
2022-08-31T10:34:00.551Z,0.50
2022-08-31T10:36:36.520Z,0.50
2022-08-31T10:39:09.772Z,0.50
2022-08-31T10:41:42.966Z,0.60
2022-08-31T10:44:26.288Z,0.52
2022-08-31T10:46:58.977Z,0.30
2022-08-31T10:49:26.668Z,0.55
2022-08-31T10:52:03.442Z,0.50
2022-08-31T10:54:54.904Z,0.55
2022-08-31T10:57:32.330Z,0.70
2022-08-31T11:00:45.527Z,0.90
2022-08-31T11:03:59.958Z,0.70
2022-08-31T11:14:34.415Z,0.70
2022-08-31T11:17:03.885Z,0.50
2022-08-31T11:20:00.587Z,0.50
2022-08-31T11:22:55.249Z,0.50
2022-08-31T11:26:01.432Z,0.68
2022-08-31T11:28:36.022Z,0.63
2022-08-31T11:31:14.608Z,0.60
2022-08-31T11:34:14.116Z,0.68
2022-08-31T11:36:50.255Z,0.60
2022-08-31T11:39:37.389Z,0.70
2022-08-31T11:42:32.385Z,0.63
2022-08-31T11:45:02.727Z,0.52
2022-08-31T11:47:29.257Z,0.65
2022-08-31T11:50:02.344Z,0.65
2022-08-31T11:52:36.986Z,0.63
2022-08-31T11:55:16.737Z,0.50
2022-08-31T11:58:10.031Z,0.80
2022-08-31T12:01:09.626Z,0.47
2022-08-31T12:03:51.400Z,0.60
2022-08-31T12:06:33.744Z,0.60
2022-08-31T12:09:39.017Z,0.60
2022-08-31T12:12:28.372Z,0.60
2022-08-31T12:15:31.110Z,0.60
2022-08-31T12:18:30.045Z,0.52
2022-08-31T12:21:35.740Z,0.50
2022-08-31T12:24:15.324Z,0.60
2022-08-31T12:27:13.565Z,0.70
2022-08-31T12:29:41.624Z,0.60
2022-08-31T12:32:24.292Z,0.50
2022-08-31T12:35:01.641Z,0.50
2022-08-31T12:37:34.780Z,0.60
2022-08-31T12:40:20.546Z,0.60
2022-08-31T12:42:56.812Z,0.50
2022-08-31T12:45:52.113Z,0.50
2022-08-31T12:48:30.594Z,0.57
2022-08-31T12:51:10.409Z,0.60
2022-08-31T12:54:08.792Z,0.60
2022-08-31T12:56:54.665Z,0.70
2022-08-31T12:59:59.425Z,0.70
2022-08-31T13:02:20.525Z,0.68
2022-08-31T13:04:48.800Z,0.40
2022-08-31T13:07:21.536Z,0.50
2022-08-31T13:10:03.533Z,0.75
2022-08-31T13:12:30.155Z,0.50
2022-08-31T13:14:56.738Z,0.52
2022-08-31T13:17:23.362Z,0.50
2022-08-31T13:19:56.741Z,0.52
2022-08-31T13:22:30.362Z,0.70
2022-08-31T13:25:16.374Z,0.70
2022-08-31T13:27:51.905Z,0.60
2022-08-31T13:30:25.635Z,0.50
2022-08-31T13:32:54.617Z,0.60
2022-08-31T13:35:26.276Z,0.60
2022-08-31T13:38:06.052Z,0.50
2022-08-31T13:40:39.369Z,0.60
2022-08-31T13:43:09.346Z,0.60
2022-08-31T13:46:00.774Z,0.60
2022-08-31T13:48:32.841Z,0.52
2022-08-31T13:51:13.395Z,0.50
2022-08-31T13:53:55.314Z,0.63
2022-08-31T13:56:56.896Z,0.60
2022-08-31T13:59:28.358Z,0.60
2022-08-31T14:02:14.651Z,0.65
2022-08-31T14:04:48.318Z,0.70
2022-08-31T14:07:35.413Z,0.70
2022-08-31T14:10:14.960Z,0.60
2022-08-31T14:13:03.060Z,0.65
2022-08-31T14:15:36.879Z,0.70
2022-08-31T14:18:25.634Z,0.60
2022-08-31T14:21:26.665Z,0.55
2022-08-31T14:24:03.000Z,0.60
2022-08-31T14:26:36.790Z,0.80
2022-08-31T14:29:10.018Z,0.70
2022-08-31T14:31:49.220Z,0.75
2022-08-31T14:34:27.279Z,0.50
2022-08-31T14:37:03.925Z,0.60
2022-08-31T14:39:46.016Z,0.60
2022-08-31T14:42:25.420Z,0.57
2022-08-31T14:45:01.851Z,0.68
2022-08-31T14:47:31.474Z,0.65
2022-08-31T14:49:59.634Z,0.50
2022-08-31T14:52:29.265Z,0.45
2022-08-31T14:55:02.576Z,0.50
2022-08-31T14:57:32.978Z,0.50
2022-08-31T15:00:02.125Z,0.60
2022-08-31T15:02:33.369Z,0.63
2022-08-31T15:05:06.727Z,0.40
2022-08-31T15:07:39.083Z,0.50
2022-08-31T15:10:08.237Z,0.47
2022-08-31T15:12:35.801Z,0.70
2022-08-31T15:15:02.476Z,0.50
2022-08-31T15:17:33.566Z,0.50
2022-08-31T15:20:03.091Z,0.60
2022-08-31T15:22:31.288Z,0.50
2022-08-31T15:24:57.937Z,0.50
2022-08-31T15:27:28.895Z,0.60
2022-08-31T15:30:04.415Z,0.40
2022-08-31T15:32:31.470Z,0.52
2022-08-31T15:34:58.434Z,0.65
2022-08-31T15:37:32.169Z,0.43
2022-08-31T15:40:01.761Z,0.40
2022-08-31T15:42:29.532Z,0.50
2022-08-31T15:44:56.857Z,0.50
2022-08-31T15:47:44.837Z,0.40
2022-08-31T15:50:12.788Z,0.50
2022-08-31T15:52:51.067Z,0.30
2022-08-31T15:55:26.591Z,0.85
2022-08-31T15:57:55.198Z,0.50
2022-08-31T16:00:24.636Z,0.50
2022-08-31T16:02:54.856Z,0.60
2022-08-31T16:05:22.000Z,0.40
2022-08-31T16:07:51.414Z,0.50
2022-08-31T16:10:20.304Z,0.60
2022-08-31T16:12:47.859Z,0.50
2022-08-31T16:15:16.151Z,0.47
2022-08-31T16:17:43.562Z,0.60
2022-08-31T16:20:12.912Z,0.50
2022-08-31T16:22:42.922Z,0.70
2022-08-31T16:25:14.822Z,0.52
2022-08-31T16:27:43.277Z,0.55
2022-08-31T16:30:11.440Z,0.60
2022-08-31T16:32:38.287Z,0.40
2022-08-31T16:35:06.425Z,0.40
2022-08-31T16:37:33.751Z,0.40
2022-08-31T16:40:00.677Z,0.70
2022-08-31T16:42:27.623Z,0.50
2022-08-31T16:44:59.809Z,0.50
2022-08-31T16:47:29.047Z,0.75
2022-08-31T16:49:57.440Z,5.47
2022-08-31T16:52:28.191Z,0.40
2022-08-31T16:54:57.421Z,0.50
2022-08-31T16:57:27.603Z,0.60
2022-08-31T16:59:56.904Z,0.70
2022-08-31T17:02:24.851Z,0.50
2022-08-31T17:04:53.973Z,0.50
2022-08-31T17:07:23.474Z,0.77
2022-08-31T17:09:51.434Z,0.60
2022-08-31T17:12:21.695Z,0.80
2022-08-31T17:14:52.814Z,0.40
2022-08-31T17:17:27.720Z,0.50
2022-08-31T17:19:56.179Z,0.50
2022-08-31T17:22:31.730Z,0.50
2022-08-31T17:25:04.715Z,0.52
2022-08-31T17:27:34.067Z,0.80
2022-08-31T17:30:05.358Z,0.73
2022-08-31T17:32:32.391Z,0.80
2022-08-31T17:34:59.279Z,0.60
2022-08-31T17:37:32.583Z,0.80
2022-08-31T17:40:01.654Z,0.47
2022-08-31T17:42:28.499Z,0.50
2022-08-31T17:44:57.241Z,0.50
2022-08-31T17:47:25.313Z,0.60
2022-08-31T17:49:52.968Z,0.50
2022-08-31T17:52:21.737Z,0.60
2022-08-31T17:54:50.923Z,0.60
2022-08-31T17:57:22.215Z,0.55
2022-08-31T17:59:49.533Z,0.50
2022-08-31T18:02:27.015Z,0.50
2022-08-31T18:04:54.064Z,0.55
2022-08-31T18:07:20.866Z,0.68
2022-08-31T18:09:51.383Z,0.80
2022-08-31T18:12:22.127Z,0.50
2022-08-31T18:14:50.241Z,0.60
2022-08-31T18:17:17.738Z,0.55
2022-08-31T18:19:45.693Z,0.60
2022-08-31T18:22:14.293Z,0.95
2022-08-31T18:24:42.215Z,0.50
2022-08-31T18:27:11.172Z,0.90
2022-08-31T18:29:39.401Z,0.55
2022-08-31T18:32:08.028Z,0.82
2022-08-31T18:34:39.129Z,0.68
2022-08-31T18:37:08.278Z,0.55
2022-08-31T18:39:55.142Z,0.65
2022-08-31T18:42:45.530Z,0.70
2022-08-31T18:45:15.400Z,0.70
2022-08-31T18:48:01.654Z,0.85
2022-08-31T18:50:35.043Z,0.80
2022-08-31T18:53:11.241Z,0.60
2022-08-31T18:55:43.083Z,0.63
2022-08-31T18:58:10.896Z,0.85
2022-08-31T19:00:40.160Z,0.63
2022-08-31T19:03:08.256Z,0.90
2022-08-31T19:05:39.525Z,0.80
2022-08-31T19:08:06.301Z,0.65
2022-08-31T19:10:34.756Z,0.68
2022-08-31T19:13:07.368Z,0.63
2022-08-31T19:15:39.473Z,0.57
2022-08-31T19:18:06.853Z,0.75
2022-08-31T19:20:35.300Z,0.60
2022-08-31T19:23:02.064Z,0.65
2022-08-31T19:25:28.841Z,0.55
2022-08-31T19:27:55.933Z,0.60
2022-08-31T19:30:27.817Z,0.60
2022-08-31T19:32:56.315Z,0.93
2022-08-31T19:35:25.890Z,0.63
2022-08-31T19:37:53.982Z,0.50
2022-08-31T19:40:21.288Z,0.65
2022-08-31T19:45:44.911Z,0.60
2022-08-31T19:48:12.355Z,0.65
2022-08-31T19:50:42.244Z,0.47
2022-08-31T19:53:13.453Z,0.50
2022-08-31T19:55:50.935Z,0.50
2022-08-31T19:58:23.875Z,0.60
2022-08-31T20:00:50.669Z,0.50
2022-08-31T20:03:19.292Z,0.50
2022-08-31T20:05:47.005Z,0.60
2022-08-31T20:08:13.739Z,0.70
2022-08-31T20:10:42.274Z,0.68
2022-08-31T20:13:12.671Z,0.43
2022-08-31T20:15:42.279Z,0.40
2022-08-31T20:18:12.830Z,0.65
2022-08-31T20:20:45.511Z,0.50
2022-08-31T20:23:18.123Z,0.60
2022-08-31T20:25:47.125Z,0.40
2022-08-31T20:28:15.467Z,0.85
2022-08-31T20:30:43.837Z,0.70
2022-08-31T20:35:50.094Z,0.88
2022-08-31T20:38:18.530Z,0.55
2022-08-31T20:40:47.397Z,0.50
2022-08-31T20:43:14.895Z,0.60
2022-08-31T20:45:42.280Z,0.55
2022-08-31T20:51:24.952Z,0.60
2022-08-31T20:53:51.693Z,0.77
2022-08-31T20:56:18.557Z,0.85
2022-08-31T20:58:46.056Z,0.50
2022-08-31T21:01:14.186Z,0.70
2022-08-31T21:03:41.411Z,0.77
2022-08-31T21:06:11.583Z,0.60
2022-08-31T21:08:41.193Z,0.50
2022-08-31T21:11:14.064Z,0.70
2022-08-31T21:13:40.841Z,0.63
2022-08-31T21:16:07.679Z,0.82
2022-08-31T21:18:35.100Z,0.60
2022-08-31T21:21:04.433Z,0.70
2022-08-31T21:23:36.341Z,0.50
2022-08-31T21:26:07.556Z,0.85
2022-08-31T21:28:38.282Z,0.85
2022-08-31T21:31:18.265Z,0.52
2022-08-31T21:33:46.353Z,0.60
2022-08-31T21:36:15.886Z,0.75
2022-08-31T21:38:44.151Z,0.60
2022-08-31T21:41:12.512Z,0.63
2022-08-31T21:43:40.066Z,0.77
2022-08-31T21:46:11.930Z,0.60
2022-08-31T21:48:40.777Z,0.73
2022-08-31T21:51:12.310Z,0.73
2022-08-31T21:53:40.179Z,0.60
2022-08-31T21:56:07.599Z,0.70
2022-08-31T21:58:34.460Z,0.60
2022-08-31T22:01:01.626Z,0.50
2022-08-31T22:03:36.117Z,0.63
2022-08-31T22:06:07.259Z,0.80
2022-08-31T22:08:35.927Z,0.60
2022-08-31T22:11:13.482Z,0.57
2022-08-31T22:13:43.897Z,0.65
2022-08-31T22:16:15.216Z,0.60
2022-08-31T22:19:06.685Z,0.73
2022-08-31T22:21:35.377Z,0.57
2022-08-31T22:24:07.418Z,0.70
2022-08-31T22:26:38.034Z,0.73
2022-08-31T22:29:06.494Z,0.85
2022-08-31T22:31:37.204Z,0.50
2022-08-31T22:34:06.247Z,0.70
2022-08-31T22:36:34.437Z,0.88
2022-08-31T22:39:11.551Z,0.60
2022-08-31T22:41:40.648Z,0.80
2022-08-31T22:44:10.388Z,0.60
2022-08-31T22:46:38.503Z,0.80
2022-08-31T22:49:06.315Z,0.65
2022-08-31T22:51:35.080Z,0.68
2022-08-31T22:54:02.596Z,0.60
2022-08-31T22:56:32.432Z,0.80
2022-08-31T22:59:04.443Z,0.70
2022-08-31T23:01:38.000Z,0.52
2022-08-31T23:04:06.941Z,0.80
2022-08-31T23:06:35.911Z,0.80
2022-08-31T23:09:05.414Z,0.80
2022-08-31T23:11:32.218Z,0.85
2022-08-31T23:14:04.058Z,0.93
2022-08-31T23:16:37.609Z,0.65
2022-08-31T23:19:12.032Z,0.90
2022-08-31T23:21:45.965Z,0.60
2022-08-31T23:24:16.757Z,0.90
2022-08-31T23:26:45.221Z,0.95
2022-08-31T23:29:13.314Z,0.65
2022-08-31T23:31:40.767Z,0.80
2022-08-31T23:34:11.537Z,0.80
2022-08-31T23:36:39.068Z,0.95
2022-08-31T23:39:07.327Z,0.80
2022-08-31T23:41:38.880Z,0.73
2022-08-31T23:44:09.199Z,0.90
2022-08-31T23:46:37.770Z,0.80
2022-08-31T23:49:08.347Z,0.98
2022-08-31T23:51:35.470Z,0.90
2022-08-31T23:54:06.358Z,1.00
2022-08-31T23:56:36.246Z,0.70
2022-08-31T23:59:09.000Z,0.80
